createdAt,value
2022-09-23T00:00:34.029Z,9.719286
2022-09-23T00:01:34.090Z,9.719204
2022-09-23T00:02:34.048Z,9.719317
2022-09-23T00:03:34.009Z,9.719227
2022-09-23T00:04:34.003Z,9.719231
2022-09-23T00:05:33.984Z,9.719315
2022-09-23T00:06:33.978Z,9.719213
2022-09-23T00:07:33.983Z,9.719093
2022-09-23T00:08:33.954Z,9.719103
2022-09-23T00:09:33.952Z,9.719065
2022-09-23T00:10:33.929Z,9.719054
2022-09-23T00:11:33.932Z,9.719103
2022-09-23T00:12:33.953Z,9.719063
2022-09-23T00:13:33.918Z,9.719094
2022-09-23T00:14:33.901Z,9.719161
2022-09-23T00:15:33.905Z,9.719173
2022-09-23T00:16:33.998Z,9.719139
2022-09-23T00:17:33.877Z,9.719258
2022-09-23T00:18:33.890Z,9.719217
2022-09-23T00:19:33.848Z,9.719155
2022-09-23T00:20:33.840Z,9.719070
2022-09-23T00:21:33.855Z,9.718984
2022-09-23T00:22:33.836Z,9.718851
2022-09-23T00:23:33.808Z,9.718828
2022-09-23T00:24:33.805Z,9.718785
2022-09-23T00:25:33.812Z,9.718736
2022-09-23T00:26:33.814Z,9.718724
2022-09-23T00:27:33.778Z,9.718733
2022-09-23T00:28:33.767Z,9.718688
2022-09-23T00:29:33.749Z,9.718881
2022-09-23T00:30:33.804Z,9.718970
2022-09-23T00:31:33.746Z,9.719037
2022-09-23T00:32:33.731Z,9.719122
2022-09-23T00:33:33.728Z,9.719099
2022-09-23T00:34:33.708Z,9.719067
2022-09-23T00:35:33.691Z,9.718996
2022-09-23T00:36:33.693Z,9.718867
2022-09-23T00:37:33.660Z,9.718977
2022-09-23T00:38:33.675Z,9.718948
2022-09-23T00:39:33.653Z,9.718954
2022-09-23T00:40:33.718Z,9.719015
2022-09-23T00:41:33.659Z,9.718789
2022-09-23T00:42:33.628Z,9.719030
2022-09-23T00:43:33.629Z,9.719060
2022-09-23T00:44:33.608Z,9.718981
2022-09-23T00:45:33.609Z,9.718932
2022-09-23T00:46:33.713Z,9.718987
2022-09-23T00:47:33.581Z,9.719024
2022-09-23T00:48:33.565Z,9.719003
2022-09-23T00:49:33.547Z,9.719041
2022-09-23T00:50:33.564Z,9.719024
2022-09-23T00:51:33.539Z,9.719022
2022-09-23T00:52:33.519Z,9.718971
2022-09-23T00:53:33.544Z,9.718993
2022-09-23T00:54:33.526Z,9.719003
2022-09-23T00:55:33.522Z,9.718917
2022-09-23T00:56:33.477Z,9.718986
2022-09-23T00:57:33.482Z,9.718933
2022-09-23T00:58:33.481Z,9.719050
2022-09-23T00:59:33.485Z,9.719026
2022-09-23T01:00:33.475Z,9.718983
2022-09-23T01:01:33.516Z,9.719007
2022-09-23T01:02:33.531Z,9.719030
2022-09-23T01:03:33.427Z,9.719002
2022-09-23T01:04:33.423Z,9.718990
2022-09-23T01:05:33.425Z,9.719102
2022-09-23T01:06:33.396Z,9.719092
2022-09-23T01:07:33.391Z,9.719053
2022-09-23T01:08:33.378Z,9.719030
2022-09-23T01:09:33.363Z,9.719092
2022-09-23T01:10:33.350Z,9.719128
2022-09-23T01:11:33.368Z,9.719059
2022-09-23T01:12:33.341Z,9.719080
2022-09-23T01:13:33.328Z,9.719041
2022-09-23T01:14:33.317Z,9.718989
2022-09-23T01:15:33.317Z,9.719125
2022-09-23T01:16:33.417Z,9.719075
2022-09-23T01:17:33.299Z,9.719168
2022-09-23T01:18:33.272Z,9.719047
2022-09-23T01:19:33.275Z,9.718998
2022-09-23T01:20:33.282Z,9.719042
2022-09-23T01:21:33.245Z,9.719086
2022-09-23T01:22:33.252Z,9.719074
2022-09-23T01:23:33.229Z,9.719081
2022-09-23T01:24:33.242Z,9.719099
2022-09-23T01:25:33.232Z,9.719007
2022-09-23T01:26:33.202Z,9.719011
2022-09-23T01:27:33.194Z,9.719101
2022-09-23T01:28:33.197Z,9.719062
2022-09-23T01:29:33.209Z,9.719124
2022-09-23T01:30:33.208Z,9.719010
2022-09-23T01:31:33.151Z,9.719056
2022-09-23T01:32:33.138Z,9.719123
2022-09-23T01:33:33.137Z,9.719163
2022-09-23T01:34:33.143Z,9.719255
2022-09-23T01:35:33.116Z,9.719125
2022-09-23T01:36:33.115Z,9.719159
2022-09-23T01:37:33.102Z,9.719122
2022-09-23T01:38:33.109Z,9.719169
2022-09-23T01:39:33.085Z,9.718945
2022-09-23T01:40:33.111Z,9.719066
2022-09-23T01:41:33.047Z,9.719056
2022-09-23T01:42:33.054Z,9.719108
2022-09-23T01:43:33.057Z,9.719131
2022-09-23T01:44:33.042Z,9.719149
2022-09-23T01:45:33.048Z,9.719076
2022-09-23T01:46:33.022Z,9.719139
2022-09-23T01:47:33.005Z,9.719101
2022-09-23T01:48:33.104Z,9.719115
2022-09-23T01:49:32.999Z,9.719202
2022-09-23T01:50:32.982Z,9.719250
2022-09-23T01:51:32.959Z,9.719175
2022-09-23T01:52:32.984Z,9.719086
2022-09-23T01:53:32.942Z,9.719093
2022-09-23T01:54:32.936Z,9.719184
2022-09-23T01:55:32.927Z,9.719243
2022-09-23T01:57:04.807Z,9.719192
2022-09-23T01:57:32.920Z,9.719157
2022-09-23T01:58:32.882Z,9.719098
2022-09-23T01:59:32.900Z,9.719205
2022-09-23T02:00:32.882Z,9.719169
2022-09-23T02:01:32.919Z,9.719200
2022-09-23T02:02:32.892Z,9.719217
2022-09-23T02:03:32.854Z,9.719044
2022-09-23T02:04:32.828Z,9.719201
2022-09-23T02:05:32.811Z,9.719150
2022-09-23T02:06:32.824Z,9.719198
2022-09-23T02:07:32.806Z,9.719222
2022-09-23T02:08:32.796Z,9.719258
2022-09-23T02:09:32.785Z,9.719179
2022-09-23T02:10:32.759Z,9.719178
2022-09-23T02:11:33.781Z,9.719092
2022-09-23T02:12:32.755Z,9.719052
2022-09-23T02:13:32.754Z,9.719114
2022-09-23T02:14:32.745Z,9.718892
2022-09-23T02:15:32.722Z,9.719007
2022-09-23T02:16:32.760Z,9.719101
2022-09-23T02:17:32.701Z,9.719085
2022-09-23T02:18:32.686Z,9.719098
2022-09-23T02:19:32.692Z,9.719208
2022-09-23T02:20:32.671Z,9.719189
2022-09-23T02:21:32.665Z,9.719211
2022-09-23T02:22:32.665Z,9.719222
2022-09-23T02:23:32.626Z,9.719214
2022-09-23T02:24:32.636Z,9.719213
2022-09-23T02:25:32.641Z,9.719094
2022-09-23T02:26:32.611Z,9.719067
2022-09-23T02:27:32.600Z,9.719012
2022-09-23T02:28:32.590Z,9.719193
2022-09-23T02:29:32.586Z,9.719069
2022-09-23T02:30:32.585Z,9.719110
2022-09-23T02:31:32.624Z,9.719136
2022-09-23T02:32:32.551Z,9.719093
2022-09-23T02:33:32.542Z,9.719080
2022-09-23T02:34:32.559Z,9.719150
2022-09-23T02:35:32.534Z,9.719146
2022-09-23T02:36:32.546Z,9.719106
2022-09-23T02:37:32.510Z,9.719121
2022-09-23T02:38:32.502Z,9.719119
2022-09-23T02:39:32.492Z,9.719208
2022-09-23T02:40:32.532Z,9.719183
2022-09-23T02:41:32.471Z,9.719257
2022-09-23T02:42:32.456Z,9.719257
2022-09-23T02:43:32.474Z,9.719256
2022-09-23T02:44:32.450Z,9.719168
2022-09-23T02:45:32.471Z,9.719244
2022-09-23T02:46:32.422Z,9.719247
2022-09-23T02:47:32.418Z,9.719152
2022-09-23T02:48:32.435Z,9.719063
2022-09-23T02:49:32.399Z,9.719171
2022-09-23T02:50:32.385Z,9.719078
2022-09-23T02:51:32.387Z,9.719156
2022-09-23T02:52:32.389Z,9.719300
2022-09-23T02:53:32.365Z,9.719338
2022-09-23T02:54:32.377Z,9.719227
2022-09-23T02:55:32.395Z,9.719355
2022-09-23T02:56:33.336Z,9.719053
2022-09-23T02:57:32.325Z,9.719272
2022-09-23T02:58:32.353Z,9.719071
2022-09-23T02:59:32.321Z,9.719113
2022-09-23T03:00:32.287Z,9.719001
2022-09-23T03:01:32.365Z,9.719049
2022-09-23T03:02:32.293Z,9.719129
2022-09-23T03:03:32.262Z,9.718904
2022-09-23T03:04:32.269Z,9.719025
2022-09-23T03:05:32.242Z,9.719342
2022-09-23T03:06:32.249Z,9.719031
2022-09-23T03:07:32.234Z,9.719131
2022-09-23T03:08:32.218Z,9.718955
2022-09-23T03:09:32.244Z,9.718891
2022-09-23T03:10:32.203Z,9.719201
2022-09-23T03:11:32.184Z,9.719294
2022-09-23T03:12:32.185Z,9.719181
2022-09-23T03:13:32.160Z,9.719153
2022-09-23T03:14:32.163Z,9.719112
2022-09-23T03:15:32.174Z,9.719200
2022-09-23T03:16:32.177Z,9.719181
2022-09-23T03:17:32.140Z,9.719180
2022-09-23T03:18:32.154Z,9.719188
2022-09-23T03:19:32.119Z,9.719191
2022-09-23T03:20:32.104Z,9.719171
2022-09-23T03:21:32.102Z,9.719163
2022-09-23T03:22:32.087Z,9.719151
2022-09-23T03:23:32.081Z,9.719172
2022-09-23T03:24:32.098Z,9.719254
2022-09-23T03:25:32.058Z,9.719276
2022-09-23T03:26:32.046Z,9.719108
2022-09-23T03:27:32.036Z,9.719192
2022-09-23T03:28:32.026Z,9.719137
2022-09-23T03:29:32.025Z,9.719257
2022-09-23T03:30:32.000Z,9.719240
2022-09-23T03:31:32.022Z,9.719272
2022-09-23T03:32:31.987Z,9.719223
2022-09-23T03:33:32.034Z,9.719270
2022-09-23T03:34:31.968Z,9.719166
2022-09-23T03:35:31.962Z,9.719254
2022-09-23T03:36:31.948Z,9.719290
2022-09-23T03:37:31.945Z,9.719173
2022-09-23T03:38:31.955Z,9.719063
2022-09-23T03:39:31.914Z,9.719148
2022-09-23T03:40:31.967Z,9.719109
2022-09-23T03:41:31.906Z,9.719093
2022-09-23T03:42:31.892Z,9.719164
2022-09-23T03:43:35.207Z,9.719106
2022-09-23T03:44:31.903Z,9.719173
2022-09-23T03:45:31.886Z,9.719141
2022-09-23T03:46:31.852Z,9.719213
2022-09-23T03:47:31.854Z,9.719185
2022-09-23T03:48:31.851Z,9.719115
2022-09-23T03:49:31.819Z,9.719151
2022-09-23T03:50:32.815Z,9.719110
2022-09-23T03:51:31.809Z,9.719223
2022-09-23T03:52:31.801Z,9.719276
2022-09-23T03:53:31.816Z,9.719341
2022-09-23T03:54:31.783Z,9.719551
2022-09-23T03:55:31.767Z,9.719405
2022-09-23T03:56:31.752Z,9.719423
2022-09-23T03:57:31.745Z,9.719415
2022-09-23T03:58:31.758Z,9.719436
2022-09-23T03:59:31.730Z,9.719473
2022-09-23T04:00:31.739Z,9.719452
2022-09-23T04:01:31.728Z,9.719475
2022-09-23T04:02:31.728Z,9.719459
2022-09-23T04:03:31.699Z,9.719366
2022-09-23T04:04:31.689Z,9.719337
2022-09-23T04:05:31.684Z,9.719326
2022-09-23T04:06:31.689Z,9.719362
2022-09-23T04:07:31.683Z,9.719316
2022-09-23T04:08:31.649Z,9.719326
2022-09-23T04:09:31.643Z,9.719343
2022-09-23T04:10:31.628Z,9.719285
2022-09-23T04:11:31.618Z,9.719320
2022-09-23T04:12:31.618Z,9.719308
2022-09-23T04:13:31.590Z,9.719210
2022-09-23T04:14:31.581Z,9.719251
2022-09-23T04:15:31.568Z,9.719253
2022-09-23T04:16:31.640Z,9.719243
2022-09-23T04:17:31.555Z,9.719264
2022-09-23T04:18:31.565Z,9.719277
2022-09-23T04:19:31.546Z,9.719244
2022-09-23T04:20:31.517Z,9.719244
2022-09-23T04:21:31.513Z,9.719318
2022-09-23T04:22:31.500Z,9.719312
2022-09-23T04:23:31.516Z,9.719275
2022-09-23T04:24:31.496Z,9.719300
2022-09-23T04:25:31.504Z,9.719321
2022-09-23T04:26:31.469Z,9.719274
2022-09-23T04:27:36.834Z,9.719262
2022-09-23T04:28:33.465Z,9.719294
2022-09-23T04:29:31.452Z,9.719254
2022-09-23T04:30:31.446Z,9.719272
2022-09-23T04:31:31.499Z,9.719273
2022-09-23T04:32:31.415Z,9.719238
2022-09-23T04:33:31.409Z,9.719256
2022-09-23T04:34:31.401Z,9.719274
2022-09-23T04:35:31.397Z,9.719260
2022-09-23T04:36:31.395Z,9.719310
2022-09-23T04:37:31.376Z,9.719352
2022-09-23T04:38:31.359Z,9.719357
2022-09-23T04:39:31.353Z,9.719290
2022-09-23T04:40:31.399Z,9.719186
2022-09-23T04:41:31.341Z,9.719177
2022-09-23T04:42:31.326Z,9.719221
2022-09-23T04:43:31.324Z,9.719175
2022-09-23T04:44:31.310Z,9.719163
2022-09-23T04:45:31.300Z,9.719152
2022-09-23T04:46:31.316Z,9.719169
2022-09-23T04:47:31.298Z,9.719121
2022-09-23T04:48:31.255Z,9.719076
2022-09-23T04:49:31.248Z,9.719120
2022-09-23T04:50:31.257Z,9.718990
2022-09-23T04:51:31.246Z,9.719111
2022-09-23T04:52:31.249Z,9.719081
2022-09-23T04:53:31.218Z,9.719140
2022-09-23T04:54:31.203Z,9.719110
2022-09-23T04:55:31.202Z,9.719190
2022-09-23T04:56:31.188Z,9.719052
2022-09-23T04:57:31.199Z,9.718946
2022-09-23T04:58:31.166Z,9.719012
2022-09-23T04:59:31.157Z,9.719140
2022-09-23T05:00:31.182Z,9.719145
2022-09-23T05:01:31.245Z,9.719112
2022-09-23T05:02:31.208Z,9.719212
2022-09-23T05:03:31.119Z,9.719265
2022-09-23T05:04:31.105Z,9.719124
2022-09-23T05:05:31.098Z,9.719010
2022-09-23T05:06:31.107Z,9.719045
2022-09-23T05:07:31.089Z,9.719056
2022-09-23T05:08:31.067Z,9.719035
2022-09-23T05:09:31.053Z,9.719091
2022-09-23T05:10:31.055Z,9.719147
2022-09-23T05:11:31.063Z,9.719183
2022-09-23T05:12:31.031Z,9.719135
2022-09-23T05:13:31.015Z,9.719159
2022-09-23T05:14:31.012Z,9.719213
2022-09-23T05:15:30.997Z,9.719256
2022-09-23T05:16:31.137Z,9.719187
2022-09-23T05:17:30.983Z,9.719203
2022-09-23T05:18:30.993Z,9.719274
2022-09-23T05:19:30.970Z,9.719271
2022-09-23T05:20:30.953Z,9.719290
2022-09-23T05:21:30.945Z,9.719240
2022-09-23T05:22:30.927Z,9.719253
2022-09-23T05:23:30.963Z,9.719275
2022-09-23T05:24:30.902Z,9.719189
2022-09-23T05:25:34.050Z,9.719140
2022-09-23T05:26:30.904Z,9.719186
2022-09-23T05:27:30.871Z,9.719216
2022-09-23T05:28:32.890Z,9.719152
2022-09-23T05:29:30.865Z,9.719103
2022-09-23T05:30:30.855Z,9.719098
2022-09-23T05:31:30.918Z,9.719109
2022-09-23T05:32:30.856Z,9.719161
2022-09-23T05:33:30.812Z,9.719218
2022-09-23T05:34:31.814Z,9.719245
2022-09-23T05:35:30.801Z,9.719180
2022-09-23T05:36:35.584Z,9.719199
2022-09-23T05:37:32.796Z,9.719142
2022-09-23T05:38:30.775Z,9.719244
2022-09-23T05:39:30.785Z,9.719248
2022-09-23T05:40:30.793Z,9.719198
2022-09-23T05:41:30.744Z,9.719255
2022-09-23T05:42:30.736Z,9.719170
2022-09-23T05:43:30.775Z,9.719115
2022-09-23T05:44:30.728Z,9.719139
2022-09-23T05:45:30.719Z,9.719159
2022-09-23T05:46:30.810Z,9.719111
2022-09-23T05:47:30.692Z,9.719094
2022-09-23T05:48:30.678Z,9.719269
2022-09-23T05:49:55.336Z,9.719271
2022-09-23T05:50:32.659Z,9.719201
2022-09-23T05:51:31.344Z,9.719270
2022-09-23T05:52:31.643Z,9.718991
2022-09-23T05:53:30.639Z,9.719151
2022-09-23T05:54:30.625Z,9.719243
2022-09-23T05:55:30.622Z,9.719252
2022-09-23T05:56:30.626Z,9.719220
2022-09-23T05:57:30.594Z,9.719353
2022-09-23T05:58:30.587Z,9.719118
2022-09-23T05:59:30.573Z,9.719013
2022-09-23T06:00:30.558Z,9.718949
2022-09-23T06:01:30.581Z,9.718909
2022-09-23T06:02:30.598Z,9.719064
2022-09-23T06:03:30.545Z,9.719061
2022-09-23T06:04:30.530Z,9.719038
2022-09-23T06:05:30.525Z,9.719090
2022-09-23T06:06:30.549Z,9.719220
2022-09-23T06:07:30.510Z,9.719202
2022-09-23T06:08:30.487Z,9.719096
2022-09-23T06:09:35.622Z,9.719129
2022-09-23T06:10:32.469Z,9.719215
2022-09-23T06:11:30.481Z,9.719282
2022-09-23T06:12:30.456Z,9.719362
2022-09-23T06:13:30.446Z,9.719138
2022-09-23T06:14:30.445Z,9.719238
2022-09-23T06:15:30.417Z,9.719157
2022-09-23T06:16:30.536Z,9.719160
2022-09-23T06:17:30.405Z,9.719018
2022-09-23T06:18:30.396Z,9.719192
2022-09-23T06:19:30.378Z,9.719115
2022-09-23T06:20:30.382Z,9.719164
2022-09-23T06:21:30.383Z,9.719176
2022-09-23T06:22:30.357Z,9.719147
2022-09-23T06:23:30.342Z,9.719071
2022-09-23T06:24:31.549Z,9.719087
2022-09-23T06:25:31.316Z,9.719110
2022-09-23T06:26:31.335Z,9.719074
2022-09-23T06:27:30.307Z,9.718952
2022-09-23T06:28:30.304Z,9.718896
2022-09-23T06:29:30.312Z,9.719131
2022-09-23T06:30:30.288Z,9.719155
2022-09-23T06:31:30.365Z,9.719110
2022-09-23T06:32:30.256Z,9.719090
2022-09-23T06:33:36.830Z,9.719198
2022-09-23T06:34:43.383Z,9.719500
2022-09-23T06:35:31.231Z,9.719145
2022-09-23T06:36:40.551Z,9.718984
2022-09-23T06:37:32.208Z,9.719099
2022-09-23T06:38:30.217Z,9.719357
2022-09-23T06:39:30.185Z,9.719302
2022-09-23T06:40:30.222Z,9.719353
2022-09-23T06:41:30.169Z,9.719168
2022-09-23T06:42:30.197Z,9.719177
2022-09-23T06:43:30.177Z,9.719246
2022-09-23T06:44:30.139Z,9.719211
2022-09-23T06:45:30.139Z,9.719332
2022-09-23T06:46:30.199Z,9.719188
2022-09-23T06:47:30.127Z,9.719442
2022-09-23T06:48:30.128Z,9.719302
2022-09-23T06:49:30.094Z,9.719285
2022-09-23T06:50:30.081Z,9.719301
2022-09-23T06:51:30.099Z,9.719429
2022-09-23T06:52:30.070Z,9.719344
2022-09-23T06:53:30.057Z,9.719269
2022-09-23T06:54:30.047Z,9.719321
2022-09-23T06:55:30.053Z,9.719170
2022-09-23T06:56:32.550Z,9.719117
2022-09-23T06:57:30.013Z,9.719086
2022-09-23T06:58:30.023Z,9.719093
2022-09-23T06:59:29.986Z,9.718981
2022-09-23T07:00:30.980Z,9.719129
2022-09-23T07:01:30.078Z,9.719166
2022-09-23T07:02:30.176Z,9.719175
2022-09-23T07:03:29.970Z,9.719112
2022-09-23T07:04:29.948Z,9.719079
2022-09-23T07:05:29.929Z,9.719119
2022-09-23T07:06:29.925Z,9.719151
2022-09-23T07:07:29.930Z,9.719201
2022-09-23T07:08:29.928Z,9.719125
2022-09-23T07:09:29.913Z,9.719131
2022-09-23T07:10:29.883Z,9.719106
2022-09-23T07:11:29.931Z,9.719116
2022-09-23T07:12:29.869Z,9.719123
2022-09-23T07:13:29.848Z,9.719085
2022-09-23T07:14:29.847Z,9.719041
2022-09-23T07:15:29.843Z,9.719006
2022-09-23T07:16:29.951Z,9.719079
2022-09-23T07:17:29.819Z,9.719143
2022-09-23T07:18:34.264Z,9.719164
2022-09-23T07:19:31.813Z,9.719137
2022-09-23T07:20:29.817Z,9.719039
2022-09-23T07:21:29.785Z,9.719172
2022-09-23T07:22:29.764Z,9.719193
2022-09-23T07:23:29.787Z,9.719205
2022-09-23T07:24:29.755Z,9.719201
2022-09-23T07:25:29.737Z,9.719213
2022-09-23T07:26:29.738Z,9.719122
2022-09-23T07:27:29.718Z,9.719049
2022-09-23T07:28:29.742Z,9.719021
2022-09-23T07:29:37.243Z,9.719132
2022-09-23T07:30:30.697Z,9.719189
2022-09-23T07:31:38.344Z,9.719252
2022-09-23T07:32:44.077Z,9.719161
2022-09-23T07:33:32.728Z,9.719152
2022-09-23T07:34:30.675Z,9.719219
2022-09-23T07:35:29.645Z,9.719185
2022-09-23T07:36:29.646Z,9.719166
2022-09-23T07:37:29.630Z,9.719110
2022-09-23T07:38:29.617Z,9.719150
2022-09-23T07:39:29.627Z,9.719078
2022-09-23T07:40:29.679Z,9.719130
2022-09-23T07:41:29.588Z,9.718962
2022-09-23T07:42:29.581Z,9.718895
2022-09-23T07:43:29.604Z,9.719042
2022-09-23T07:44:29.566Z,9.719140
2022-09-23T07:45:29.546Z,9.719202
2022-09-23T07:46:29.653Z,9.719154
2022-09-23T07:47:29.529Z,9.719213
2022-09-23T07:48:33.883Z,9.719030
2022-09-23T07:49:29.517Z,9.719035
2022-09-23T07:50:29.509Z,9.719005
2022-09-23T07:51:34.737Z,9.719109
2022-09-23T07:52:30.494Z,9.719042
2022-09-23T07:53:29.475Z,9.719071
2022-09-23T07:54:29.492Z,9.719151
2022-09-23T07:55:29.460Z,9.719130
2022-09-23T07:56:29.443Z,9.719110
2022-09-23T07:58:01.336Z,9.719214
2022-09-23T07:58:29.460Z,9.719214
2022-09-23T07:59:29.450Z,9.719137
2022-09-23T08:00:29.416Z,9.719120
2022-09-23T08:01:29.568Z,9.719225
2022-09-23T08:02:29.442Z,9.719256
2022-09-23T08:03:29.375Z,9.719184
2022-09-23T08:04:29.379Z,9.719116
2022-09-23T08:05:29.365Z,9.719196
2022-09-23T08:06:29.368Z,9.719182
2022-09-23T08:07:29.338Z,9.719268
2022-09-23T08:08:29.337Z,9.719214
2022-09-23T08:09:29.337Z,9.719175
2022-09-23T08:10:29.335Z,9.719208
2022-09-23T08:11:29.345Z,9.719259
2022-09-23T08:12:29.284Z,9.719182
2022-09-23T08:13:29.294Z,9.719146
2022-09-23T08:14:29.298Z,9.719319
2022-09-23T08:15:29.324Z,9.719554
2022-09-23T08:16:29.321Z,9.719441
2022-09-23T08:17:29.234Z,9.719330
2022-09-23T08:18:29.239Z,9.718641
2022-09-23T08:19:29.280Z,9.719291
2022-09-23T08:20:29.287Z,9.719313
2022-09-23T08:21:29.226Z,9.719448
2022-09-23T08:22:29.247Z,9.719336
2022-09-23T08:23:29.223Z,9.719305
2022-09-23T08:24:29.214Z,9.719631
2022-09-23T08:25:31.976Z,9.719574
2022-09-23T08:26:29.154Z,9.719693
2022-09-23T08:27:29.222Z,9.719923
2022-09-23T08:28:29.132Z,9.720658
2022-09-23T08:29:29.147Z,9.720041
2022-09-23T08:30:29.168Z,9.719376
2022-09-23T08:31:29.131Z,9.719440
2022-09-23T08:32:29.092Z,9.719669
2022-09-23T08:33:29.126Z,9.719893
2022-09-23T08:34:29.097Z,9.719632
2022-09-23T08:35:29.080Z,9.719549
2022-09-23T08:36:29.059Z,9.719802
2022-09-23T08:37:29.078Z,9.719301
2022-09-23T08:38:29.087Z,9.719557
2022-09-23T08:39:29.046Z,9.719449
2022-09-23T08:40:29.064Z,9.719463
2022-09-23T08:41:29.134Z,9.719439
2022-09-23T08:42:29.014Z,9.719376
2022-09-23T08:43:28.999Z,9.719696
2022-09-23T08:44:29.048Z,9.719236
2022-09-23T08:45:28.971Z,9.719293
2022-09-23T08:46:29.008Z,9.719165
2022-09-23T08:47:28.946Z,9.719266
2022-09-23T08:48:28.955Z,9.719254
2022-09-23T08:49:29.128Z,9.719193
2022-09-23T08:50:28.943Z,9.719218
2022-09-23T08:51:28.958Z,9.719127
2022-09-23T08:52:28.904Z,9.719098
2022-09-23T08:53:28.887Z,9.719203
2022-09-23T08:54:28.875Z,9.719222
2022-09-23T08:55:28.861Z,9.719103
2022-09-23T08:56:28.980Z,9.719118
2022-09-23T08:57:28.971Z,9.719060
2022-09-23T08:58:29.640Z,9.719170
2022-09-23T08:59:28.861Z,9.719223
2022-09-23T09:00:28.805Z,9.719176
2022-09-23T09:01:28.820Z,9.719157
2022-09-23T09:02:28.832Z,9.719151
2022-09-23T09:03:28.793Z,9.719167
2022-09-23T09:04:28.791Z,9.719153
2022-09-23T09:05:28.852Z,9.719109
2022-09-23T09:06:28.767Z,9.719087
2022-09-23T09:07:37.426Z,9.719064
2022-09-23T09:08:30.810Z,9.719161
2022-09-23T09:09:28.738Z,9.719228
2022-09-23T09:10:28.716Z,9.719112
2022-09-23T09:11:28.726Z,9.719204
2022-09-23T09:12:28.718Z,9.719219
2022-09-23T09:13:28.677Z,9.719100
2022-09-23T09:14:29.705Z,9.719151
2022-09-23T09:15:28.779Z,9.719292
2022-09-23T09:16:55.625Z,9.719312
2022-09-23T09:17:34.397Z,9.719224
2022-09-23T09:18:29.651Z,9.719211
2022-09-23T09:19:28.636Z,9.719229
2022-09-23T09:20:28.645Z,9.719159
2022-09-23T09:21:28.634Z,9.719213
2022-09-23T09:22:28.612Z,9.719117
2022-09-23T09:23:28.616Z,9.719147
2022-09-23T09:24:28.591Z,9.719268
2022-09-23T09:25:33.433Z,9.719352
2022-09-23T09:26:30.597Z,9.719325
2022-09-23T09:27:28.597Z,9.719436
2022-09-23T09:28:28.575Z,9.719439
2022-09-23T09:29:35.464Z,9.719288
2022-09-23T09:30:29.534Z,9.719519
2022-09-23T09:31:28.578Z,9.719175
2022-09-23T09:32:28.509Z,9.718978
2022-09-23T09:33:28.516Z,9.719200
2022-09-23T09:34:28.521Z,9.719390
2022-09-23T09:35:28.563Z,9.719195
2022-09-23T09:36:30.855Z,9.719064
2022-09-23T09:37:28.465Z,9.719041
2022-09-23T09:38:28.440Z,9.719009
2022-09-23T09:39:29.458Z,9.719161
2022-09-23T09:40:28.494Z,9.719049
2022-09-23T09:41:28.441Z,9.719361
2022-09-23T09:42:28.466Z,9.719297
2022-09-23T09:43:28.400Z,9.719316
2022-09-23T09:44:28.435Z,9.719170
2022-09-23T09:45:28.369Z,9.719204
2022-09-23T09:46:28.435Z,9.719205
2022-09-23T09:47:28.379Z,9.719268
2022-09-23T09:48:28.359Z,9.719319
2022-09-23T09:49:28.449Z,9.719344
2022-09-23T09:50:28.365Z,9.719374
2022-09-23T09:51:28.335Z,9.719169
2022-09-23T09:52:28.301Z,9.719191
2022-09-23T09:53:28.258Z,9.719260
2022-09-23T09:54:28.241Z,9.719296
2022-09-23T09:55:28.244Z,9.719299
2022-09-23T09:56:28.220Z,9.719086
2022-09-23T09:57:32.163Z,9.719102
2022-09-23T09:58:28.200Z,9.719164
2022-09-23T09:59:28.220Z,9.719048
2022-09-23T10:00:28.182Z,9.719180
2022-09-23T10:01:28.283Z,9.719085
2022-09-23T10:02:28.173Z,9.719115
2022-09-23T10:03:29.189Z,9.719125
2022-09-23T10:04:28.207Z,9.719074
2022-09-23T10:05:28.144Z,9.719159
2022-09-23T10:06:28.148Z,9.719160
2022-09-23T10:07:28.102Z,9.719168
2022-09-23T10:08:28.116Z,9.719133
2022-09-23T10:09:28.082Z,9.719159
2022-09-23T10:10:32.862Z,9.719207
2022-09-23T10:11:29.070Z,9.719164
2022-09-23T10:12:28.287Z,9.719165
2022-09-23T10:13:28.049Z,9.719154
2022-09-23T10:14:28.039Z,9.719189
2022-09-23T10:15:28.051Z,9.719192
2022-09-23T10:16:28.050Z,9.719090
2022-09-23T10:17:28.041Z,9.719145
2022-09-23T10:18:27.993Z,9.719168
2022-09-23T10:19:28.002Z,9.719151
2022-09-23T10:20:28.004Z,9.719136
2022-09-23T10:21:28.217Z,9.719149
2022-09-23T10:22:28.952Z,9.719061
2022-09-23T10:23:27.965Z,9.718966
2022-09-23T10:24:27.937Z,9.719110
2022-09-23T10:25:27.934Z,9.719132
2022-09-23T10:26:27.966Z,9.719231
2022-09-23T10:27:27.919Z,9.719270
2022-09-23T10:28:27.892Z,9.719239
2022-09-23T10:29:27.904Z,9.719145
2022-09-23T10:30:27.982Z,9.719099
2022-09-23T10:31:27.884Z,9.719184
2022-09-23T10:32:27.876Z,9.719215
2022-09-23T10:33:27.865Z,9.719319
2022-09-23T10:34:27.848Z,9.719325
2022-09-23T10:35:27.841Z,9.719218
2022-09-23T10:36:28.009Z,9.719117
2022-09-23T10:37:27.812Z,9.719301
2022-09-23T10:38:27.802Z,9.719282
2022-09-23T10:39:27.852Z,9.719199
2022-09-23T10:40:27.859Z,9.719255
2022-09-23T10:41:27.788Z,9.719368
2022-09-23T10:42:27.765Z,9.719429
2022-09-23T10:43:27.769Z,9.719610
2022-09-23T10:44:27.748Z,9.719569
2022-09-23T10:45:27.749Z,9.719584
2022-09-23T10:46:27.768Z,9.719488
2022-09-23T10:47:27.721Z,9.719630
2022-09-23T10:48:27.706Z,9.719589
2022-09-23T10:49:27.699Z,9.719801
2022-09-23T10:50:27.707Z,9.719626
2022-09-23T10:51:27.689Z,9.719504
2022-09-23T10:52:27.681Z,9.719531
2022-09-23T10:53:27.772Z,9.719547
2022-09-23T10:54:27.670Z,9.719692
2022-09-23T10:55:27.654Z,9.719740
2022-09-23T10:56:27.654Z,9.719800
2022-09-23T10:57:27.647Z,9.719634
2022-09-23T10:58:27.639Z,9.719451
2022-09-23T10:59:27.605Z,9.719518
2022-09-23T11:00:27.602Z,9.719460
2022-09-23T11:01:27.669Z,9.719527
2022-09-23T11:02:27.593Z,9.719379
2022-09-23T11:03:27.588Z,9.719506
2022-09-23T11:04:28.711Z,9.719341
2022-09-23T11:05:27.556Z,9.719512
2022-09-23T11:06:27.544Z,9.719436
2022-09-23T11:07:27.672Z,9.719309
2022-09-23T11:08:27.529Z,9.719214
2022-09-23T11:09:27.541Z,9.719357
2022-09-23T11:10:45.452Z,9.719401
2022-09-23T11:11:29.517Z,9.719402
2022-09-23T11:12:27.491Z,9.719292
2022-09-23T11:13:27.479Z,9.719357
2022-09-23T11:14:27.478Z,9.719103
2022-09-23T11:15:27.461Z,9.718845
2022-09-23T11:16:27.593Z,9.719002
2022-09-23T11:17:27.437Z,9.719090
2022-09-23T11:18:27.440Z,9.719368
2022-09-23T11:19:27.424Z,9.719287
2022-09-23T11:20:27.426Z,9.718911
2022-09-23T11:21:27.432Z,9.718966
2022-09-23T11:22:27.387Z,9.719252
2022-09-23T11:23:27.397Z,9.719118
2022-09-23T11:24:27.386Z,9.719097
2022-09-23T11:25:27.367Z,9.719052
2022-09-23T11:26:32.249Z,9.719206
2022-09-23T11:27:28.356Z,9.719218
2022-09-23T11:28:27.336Z,9.719273
2022-09-23T11:29:27.354Z,9.719185
2022-09-23T11:30:27.358Z,9.719267
2022-09-23T11:31:27.327Z,9.719179
2022-09-23T11:32:27.297Z,9.719188
2022-09-23T11:33:27.289Z,9.719196
2022-09-23T11:34:27.301Z,9.719096
2022-09-23T11:35:27.298Z,9.719098
2022-09-23T11:36:27.275Z,9.718891
2022-09-23T11:37:27.271Z,9.718843
2022-09-23T11:38:27.236Z,9.719114
2022-09-23T11:39:27.250Z,9.719363
2022-09-23T11:40:27.337Z,9.719153
2022-09-23T11:41:27.210Z,9.719302
2022-09-23T11:42:27.194Z,9.719161
2022-09-23T11:43:27.183Z,9.719279
2022-09-23T11:44:27.179Z,9.719219